Time;durP1;ratioP1;P1;durP2;ratioP2;P2;SDS_P1;SDS_P2;PMS_P1;PMS_P2;Temp;Humidity;BMP_temperature;BMP_pressure;BME280_temperature;BME280_humidity;BME280_pressure;Samples;Min_cycle;Max_cycle;Signal;HPM_P1;HPM_P2
2022/08/27 00:01:32;;;;;;;11.53;5.37;;;22.50;79.40;;;;;;4989953;28;20041;-76
2022/08/27 00:03:58;;;;;;;11.07;6.17;;;22.70;79.90;;;;;;4991032;28;20042;-76
2022/08/27 00:06:25;;;;;;;7.60;5.13;;;22.60;80.10;;;;;;4988706;28;20299;-76
2022/08/27 00:08:52;;;;;;;10.80;5.28;;;22.60;80.40;;;;;;4988709;28;20033;-75
2022/08/27 00:11:19;;;;;;;8.90;5.22;;;22.60;80.70;;;;;;4988799;28;20497;-75
2022/08/27 00:13:45;;;;;;;11.00;5.97;;;22.50;81.00;;;;;;4998275;28;20555;-75
2022/08/27 00:16:14;;;;;;;9.15;6.18;;;22.50;81.10;;;;;;5009371;28;20062;-75
2022/08/27 00:18:41;;;;;;;9.35;5.30;;;22.50;81.40;;;;;;5008324;28;20060;-75
2022/08/27 00:21:08;;;;;;;8.27;5.65;;;22.40;81.30;;;;;;5006109;28;20034;-75
2022/08/27 00:23:35;;;;;;;9.18;5.45;;;22.50;81.40;;;;;;5007814;28;20034;-74
2022/08/27 00:26:01;;;;;;;;;;;22.40;82.10;;;;;;5010298;28;20022;-74
2022/08/27 00:28:28;;;;;;;8.35;5.70;;;22.40;81.90;;;;;;5003466;28;20238;-75
2022/08/27 00:30:56;;;;;;;8.38;6.00;;;22.40;81.80;;;;;;4989626;28;20071;-75
2022/08/27 00:33:23;;;;;;;11.95;5.80;;;22.40;81.90;;;;;;4988373;28;20039;-75
2022/08/27 00:35:49;;;;;;;9.98;6.25;;;22.40;82.00;;;;;;4990709;28;20026;-75
2022/08/27 00:38:15;;;;;;;9.60;6.10;;;22.40;82.20;;;;;;4988493;28;20156;-76
2022/08/27 00:40:42;;;;;;;138.38;13.75;;;22.40;82.30;;;;;;4988219;28;20053;-76
2022/08/27 00:43:08;;;;;;;;;;;22.30;82.50;;;;;;5001193;28;20045;-75
2022/08/27 00:45:40;;;;;;;60.80;9.50;;;22.30;82.50;;;;;;5009137;28;19920;-76
2022/08/27 00:48:09;;;;;;;89.22;11.93;;;22.30;82.40;;;;;;5007899;28;20022;-76
2022/08/27 00:50:40;;;;;;;133.30;13.85;;;22.30;82.00;;;;;;5007287;28;20030;-76
2022/08/27 00:53:16;;;;;;;52.38;8.88;;;22.30;81.90;;;;;;5006168;28;20038;-76
2022/08/27 00:55:47;;;;;;;28.83;8.35;;;22.30;82.30;;;;;;5009216;28;20125;-75
2022/08/27 00:58:45;;;;;;;25.67;7.78;;;22.30;82.40;;;;;;5007820;28;20444;-75
2022/08/27 01:01:13;;;;;;;15.32;4.95;;;22.30;82.60;;;;;;4981267;28;20039;-76
2022/08/27 01:03:43;;;;;;;92.60;9.93;;;22.30;82.80;;;;;;4970296;28;20121;-76
2022/08/27 01:06:11;;;;;;;20.90;4.65;;;22.30;83.00;;;;;;4981006;28;20117;-76
2022/08/27 01:08:43;;;;;;;9.20;3.45;;;22.30;83.00;;;;;;4989289;28;20153;-75
2022/08/27 01:11:09;;;;;;;47.88;5.82;;;22.20;83.30;;;;;;4987993;28;20441;-75
2022/08/27 01:13:36;;;;;;;;;;;22.20;83.00;;;;;;4988541;28;20045;-76
2022/08/27 01:16:02;;;;;;;7.90;2.67;;;22.20;83.20;;;;;;4989062;28;20507;-76
2022/08/27 01:18:32;;;;;;;6.60;2.42;;;22.10;83.60;;;;;;4987794;28;20160;-75
2022/08/27 01:21:32;;;;;;;8.23;2.17;;;22.10;83.20;;;;;;4991364;28;20034;-75
2022/08/27 01:24:07;;;;;;;2.50;1.63;;;22.00;83.20;;;;;;4988575;28;20053;-75
2022/08/27 01:26:33;;;;;;;1.90;1.10;;;22.00;83.40;;;;;;4987655;28;20034;-75
2022/08/27 01:28:59;;;;;;;2.30;1.65;;;22.00;83.30;;;;;;4989439;28;20027;-76
2022/08/27 01:31:26;;;;;;;1.20;1.10;;;21.90;83.20;;;;;;4993117;28;20421;-75
2022/08/27 01:33:58;;;;;;;2.30;2.00;;;22.00;83.40;;;;;;4981327;28;20018;-75
2022/08/27 01:36:24;;;;;;;1.00;0.85;;;22.00;83.70;;;;;;4989569;28;20042;-75
2022/08/27 01:38:50;;;;;;;0.40;0.40;;;22.00;83.40;;;;;;4987424;28;20045;-76
2022/08/27 01:41:17;;;;;;;6.30;1.97;;;21.90;84.30;;;;;;4988951;28;20054;-75
2022/08/27 01:43:42;;;;;;;0.57;0.57;;;21.90;83.60;;;;;;4987402;28;20058;-75
2022/08/27 01:46:08;;;;;;;0.30;0.30;;;21.90;83.90;;;;;;5004521;28;20088;-76
2022/08/27 01:48:34;;;;;;;0.53;0.53;;;21.90;84.10;;;;;;5008200;28;20033;-76
2022/08/27 01:50:59;;;;;;;2.40;0.80;;;21.90;84.30;;;;;;4988330;28;20026;-75
2022/08/27 01:53:26;;;;;;;2.50;1.50;;;21.80;84.70;;;;;;5006509;28;20087;-76
2022/08/27 01:55:53;;;;;;;1.10;1.00;;;21.80;84.90;;;;;;5007972;28;20383;-75
2022/08/27 01:58:22;;;;;;;1.20;1.10;;;21.70;85.00;;;;;;5008021;28;20431;-75
2022/08/27 02:00:51;;;;;;;0.85;0.85;;;21.70;85.20;;;;;;4993635;28;20084;-76
2022/08/27 02:03:17;;;;;;;0.30;0.30;;;21.70;85.50;;;;;;4988378;28;20103;-76
2022/08/27 02:05:44;;;;;;;0.83;0.83;;;21.70;85.80;;;;;;4988119;28;20324;-75
2022/08/27 02:08:12;;;;;;;57.40;1.95;;;21.70;85.40;;;;;;5004732;28;20022;-76
2022/08/27 02:10:38;;;;;;;0.80;0.77;;;21.70;85.80;;;;;;5006457;28;20079;-75
2022/08/27 02:13:07;;;;;;;0.68;0.68;;;21.70;85.90;;;;;;5005615;28;20103;-75
2022/08/27 02:15:33;;;;;;;1.73;1.60;;;21.60;86.30;;;;;;4998656;28;20030;-76
2022/08/27 02:17:59;;;;;;;6.63;1.67;;;21.60;86.50;;;;;;4988118;28;20034;-76
2022/08/27 02:20:28;;;;;;;1.70;1.60;;;21.60;87.00;;;;;;4986622;28;20045;-75
2022/08/27 02:22:54;;;;;;;0.85;0.82;;;21.60;87.70;;;;;;4988852;28;20041;-75
2022/08/27 02:25:20;;;;;;;1.77;1.57;;;21.50;88.30;;;;;;5005179;28;20105;-76
2022/08/27 02:27:47;;;;;;;1.08;1.08;;;21.40;88.70;;;;;;5007555;28;20312;-75
2022/08/27 02:30:19;;;;;;;0.35;0.35;;;21.40;88.90;;;;;;5001710;28;20428;-75
2022/08/27 02:32:46;;;;;;;1.77;1.65;;;21.40;89.00;;;;;;4988142;28;20054;-75
2022/08/27 02:35:12;;;;;;;;;;;21.40;89.30;;;;;;4987046;28;20042;-75
2022/08/27 02:37:37;;;;;;;0.47;0.47;;;21.50;89.30;;;;;;4988409;28;20327;-75
2022/08/27 02:40:05;;;;;;;0.60;0.60;;;21.50;89.30;;;;;;4988916;28;20522;-75
2022/08/27 02:42:31;;;;;;;1.80;0.65;;;21.50;89.50;;;;;;4988011;28;20049;-75
2022/08/27 02:44:58;;;;;;;1.70;1.38;;;21.50;89.80;;;;;;4986782;28;20133;-76
2022/08/27 02:47:23;;;;;;;1.23;1.13;;;21.50;90.00;;;;;;5007411;28;20105;-75
2022/08/27 02:49:50;;;;;;;1.13;1.00;;;21.50;90.00;;;;;;5006166;28;20032;-74
2022/08/27 02:52:15;;;;;;;15.32;1.75;;;21.40;90.10;;;;;;5005711;28;20515;-75
2022/08/27 02:54:41;;;;;;;1.20;1.00;;;21.40;90.30;;;;;;5005928;28;20033;-75
2022/08/27 02:57:08;;;;;;;0.63;0.63;;;21.50;90.40;;;;;;5007146;28;20073;-75
2022/08/27 02:59:34;;;;;;;0.50;0.50;;;21.30;90.50;;;;;;5006021;28;20038;-74
2022/08/27 03:02:00;;;;;;;2.50;1.27;;;21.40;90.70;;;;;;4992229;28;20031;-75
2022/08/27 03:04:28;;;;;;;0.63;0.63;;;21.30;90.70;;;;;;4986132;28;20578;-75
2022/08/27 03:06:56;;;;;;;0.88;0.88;;;21.30;90.70;;;;;;4988656;28;20023;-75
2022/08/27 03:09:22;;;;;;;0.50;0.50;;;21.30;90.90;;;;;;4987826;28;20061;-75
2022/08/27 03:11:47;;;;;;;0.73;0.73;;;21.30;90.90;;;;;;4987551;28;20040;-76
2022/08/27 03:14:13;;;;;;;1.07;0.73;;;21.30;91.10;;;;;;4986291;28;20069;-75
2022/08/27 03:16:39;;;;;;;0.37;0.37;;;21.30;91.10;;;;;;4997293;28;20430;-75
2022/08/27 03:19:06;;;;;;;0.38;0.38;;;21.30;91.20;;;;;;5006718;28;20041;-76
2022/08/27 03:21:32;;;;;;;;;;;21.20;91.30;;;;;;5007110;28;20082;-76
2022/08/27 03:24:00;;;;;;;0.90;0.82;;;21.20;91.30;;;;;;5003955;28;19917;-75
2022/08/27 03:26:27;;;;;;;0.47;0.47;;;21.20;91.30;;;;;;5007325;28;20034;-75
2022/08/27 03:28:53;;;;;;;;;;;21.20;91.40;;;;;;5011105;28;20030;-75
2022/08/27 03:31:26;;;;;;;1.33;0.55;;;21.20;91.40;;;;;;5004863;28;19913;-77
2022/08/27 03:33:54;;;;;;;0.50;0.50;;;21.20;91.60;;;;;;4989559;28;20035;-75
2022/08/27 03:36:20;;;;;;;1.00;0.70;;;21.20;91.70;;;;;;4990607;28;20037;-75
2022/08/27 03:38:46;;;;;;;0.90;0.90;;;21.20;91.70;;;;;;5002744;28;20046;-75
2022/08/27 03:41:12;;;;;;;1.80;1.27;;;21.30;91.90;;;;;;5009827;28;20091;-76
2022/08/27 03:43:39;;;;;;;0.30;0.30;;;21.30;92.00;;;;;;5009138;28;20146;-76
2022/08/27 03:46:07;;;;;;;0.93;0.93;;;21.20;92.30;;;;;;5007049;28;20477;-75
2022/08/27 03:48:33;;;;;;;1.95;1.20;;;21.30;92.50;;;;;;5009127;28;20486;-75
2022/08/27 03:51:07;;;;;;;0.45;0.35;;;21.20;92.40;;;;;;5009897;28;20471;-75
2022/08/27 03:53:33;;;;;;;0.70;0.65;;;21.30;92.30;;;;;;5001087;28;20339;-75
2022/08/27 03:55:59;;;;;;;0.82;0.82;;;21.20;92.20;;;;;;4990062;28;20113;-75
2022/08/27 03:58:25;;;;;;;1.60;1.50;;;21.30;92.30;;;;;;4988814;28;20138;-76
2022/08/27 04:00:51;;;;;;;0.20;0.20;;;21.40;92.40;;;;;;4990399;28;20038;-75
2022/08/27 04:03:16;;;;;;;0.90;0.90;;;21.30;92.50;;;;;;5007289;28;20101;-76
2022/08/27 04:05:42;;;;;;;9.30;1.33;;;21.40;92.60;;;;;;5008606;28;20022;-75
2022/08/27 04:08:11;;;;;;;0.87;0.83;;;21.40;92.60;;;;;;5006782;28;20044;-76
2022/08/27 04:10:40;;;;;;;0.60;0.60;;;21.40;92.60;;;;;;5009560;28;20026;-76
2022/08/27 04:13:05;;;;;;;0.80;0.80;;;21.40;92.70;;;;;;5009439;28;20424;-76
2022/08/27 04:15:31;;;;;;;0.90;0.90;;;21.40;92.90;;;;;;5009519;28;20044;-75
2022/08/27 04:17:56;;;;;;;3.67;1.50;;;21.40;93.20;;;;;;4995377;28;20033;-76
2022/08/27 04:20:22;;;;;;;1.27;1.17;;;21.40;93.10;;;;;;4989867;28;20039;-76
2022/08/27 04:22:48;;;;;;;0.70;0.70;;;21.30;93.20;;;;;;4990057;28;20023;-76
2022/08/27 04:25:13;;;;;;;1.67;1.43;;;21.30;93.40;;;;;;4990480;28;20058;-76
2022/08/27 04:27:39;;;;;;;0.30;0.30;;;21.40;93.50;;;;;;4990131;28;20521;-76
2022/08/27 04:30:08;;;;;;;0.20;0.20;;;21.40;93.40;;;;;;4990146;28;20054;-75
2022/08/27 04:32:34;;;;;;;0.95;0.90;;;21.40;93.60;;;;;;4995600;28;20385;-75
2022/08/27 04:35:00;;;;;;;0.55;0.55;;;21.50;93.90;;;;;;5009718;28;20038;-75
2022/08/27 04:37:30;;;;;;;0.80;0.50;;;21.50;93.80;;;;;;5008529;28;20042;-76
2022/08/27 04:39:56;;;;;;;0.40;0.40;;;21.50;94.30;;;;;;5007551;28;20358;-76
2022/08/27 04:42:21;;;;;;;0.65;0.65;;;21.50;94.60;;;;;;5009076;28;20154;-74
2022/08/27 04:44:47;;;;;;;0.60;0.60;;;21.40;94.50;;;;;;5009553;28;20026;-76
2022/08/27 04:47:14;;;;;;;0.85;0.85;;;21.40;95.00;;;;;;5006469;28;20061;-75
2022/08/27 04:49:40;;;;;;;0.30;0.30;;;21.40;94.60;;;;;;4988591;28;20052;-75
2022/08/27 04:52:06;;;;;;;0.75;0.73;;;21.40;95.40;;;;;;4989467;28;20049;-75
2022/08/27 04:54:33;;;;;;;0.40;0.40;;;21.40;95.10;;;;;;4996014;28;20443;-76
2022/08/27 04:56:59;;;;;;;;;;;21.30;95.80;;;;;;5006489;28;20026;-76
2022/08/27 04:59:25;;;;;;;1.08;0.57;;;21.30;95.60;;;;;;5007530;28;19913;-75
2022/08/27 05:01:50;;;;;;;1.40;1.30;;;21.30;95.90;;;;;;5007436;28;20513;-75
2022/08/27 05:04:20;;;;;;;0.90;0.87;;;21.30;95.80;;;;;;4989885;28;20133;-76
2022/08/27 05:06:47;;;;;;;0.80;0.80;;;21.30;95.80;;;;;;4987927;28;20041;-75
2022/08/27 05:09:14;;;;;;;0.82;0.80;;;21.40;96.00;;;;;;4988702;28;20121;-75
2022/08/27 05:11:40;;;;;;;1.00;0.95;;;21.40;96.20;;;;;;4987834;28;20509;-75
2022/08/27 05:14:10;;;;;;;0.67;0.67;;;21.50;96.50;;;;;;4987727;28;20121;-75
2022/08/27 05:16:36;;;;;;;1.35;0.85;;;21.40;96.60;;;;;;4989240;28;20264;-75
2022/08/27 05:19:04;;;;;;;0.98;0.98;;;21.50;97.00;;;;;;5000772;28;20376;-75
2022/08/27 05:21:33;;;;;;;0.30;0.30;;;21.50;97.20;;;;;;5008422;28;20022;-76
2022/08/27 05:24:01;;;;;;;0.60;0.60;;;21.50;96.90;;;;;;5006118;28;20405;-76
2022/08/27 05:26:27;;;;;;;1.65;1.05;;;21.40;97.10;;;;;;5005528;28;20034;-76
2022/08/27 05:28:53;;;;;;;2.63;1.30;;;21.40;97.80;;;;;;5007188;28;20362;-76
2022/08/27 05:31:20;;;;;;;13.47;0.97;;;21.20;98.20;;;;;;5007038;28;20033;-76
2022/08/27 05:33:46;;;;;;;;;;;21.40;98.70;;;;;;4998147;28;20038;-76
2022/08/27 05:36:21;;;;;;;3.63;1.85;;;21.40;98.70;;;;;;4987482;28;20305;-75
2022/08/27 05:38:48;;;;;;;0.65;0.65;;;21.40;98.50;;;;;;4987535;28;20671;-75
2022/08/27 05:41:16;;;;;;;3.30;2.42;;;21.40;98.50;;;;;;4988117;28;20053;-75
2022/08/27 05:43:44;;;;;;;2.00;1.80;;;21.40;98.20;;;;;;4987221;28;20379;-75
2022/08/27 05:46:14;;;;;;;1.20;1.10;;;21.50;98.20;;;;;;4988621;28;20046;-75
2022/08/27 05:48:41;;;;;;;1.10;1.00;;;21.50;98.50;;;;;;5003358;28;20037;-74
2022/08/27 05:51:14;;;;;;;0.43;0.43;;;21.60;98.30;;;;;;5008066;28;20471;-75
2022/08/27 05:53:40;;;;;;;7.90;1.75;;;21.60;98.40;;;;;;5006806;28;20397;-75
2022/08/27 05:56:21;;;;;;;2.40;1.73;;;21.60;98.60;;;;;;5006222;28;20030;-76
2022/08/27 06:01:35;;;;;;;0.40;0.30;;;21.60;98.50;;;;;;5008031;28;20041;-75
2022/08/27 06:04:03;;;;;;;0.50;0.50;;;21.60;99.30;;;;;;5000847;28;20058;-75
2022/08/27 06:06:28;;;;;;;11.57;1.00;;;21.60;99.50;;;;;;4988370;28;20030;-76
2022/08/27 06:08:54;;;;;;;1.00;0.97;;;21.70;99.20;;;;;;4987937;28;20156;-75
2022/08/27 06:11:20;;;;;;;2.43;0.73;;;21.60;98.90;;;;;;4988173;28;20019;-76
2022/08/27 06:13:47;;;;;;;0.93;0.77;;;21.70;98.70;;;;;;4986988;28;20037;-76
2022/08/27 06:16:15;;;;;;;0.52;0.50;;;21.70;99.00;;;;;;4988056;28;20033;-76
2022/08/27 06:18:43;;;;;;;1.38;1.27;;;21.70;99.50;;;;;;5004784;28;20063;-76
2022/08/27 06:21:11;;;;;;;1.27;1.05;;;21.70;99.60;;;;;;5007310;28;20526;-76
2022/08/27 06:23:36;;;;;;;1.17;0.73;;;21.70;99.90;;;;;;5004179;28;20484;-75
2022/08/27 06:26:06;;;;;;;0.87;0.87;;;21.70;99.90;;;;;;5006479;28;20033;-76
2022/08/27 06:28:33;;;;;;;0.77;0.77;;;21.60;99.90;;;;;;5007478;28;20117;-76
2022/08/27 06:31:13;;;;;;;0.57;0.57;;;21.60;99.90;;;;;;5005984;28;20053;-75
2022/08/27 06:33:40;;;;;;;1.88;1.35;;;21.60;99.90;;;;;;4996695;28;20046;-75
2022/08/27 06:36:09;;;;;;;1.42;1.33;;;21.50;99.90;;;;;;4986902;28;20042;-76
2022/08/27 06:38:36;;;;;;;0.52;0.52;;;21.50;99.90;;;;;;4986404;28;20035;-75
2022/08/27 06:41:05;;;;;;;;;;;21.60;99.90;;;;;;4991380;28;20450;-76
2022/08/27 06:43:31;;;;;;;0.20;0.20;;;21.50;99.90;;;;;;4987803;28;19922;-75
2022/08/27 06:45:56;;;;;;;0.93;0.93;;;21.60;99.90;;;;;;4986672;28;20044;-75
2022/08/27 06:48:22;;;;;;;0.30;0.30;;;21.70;99.90;;;;;;4993742;28;20469;-75
2022/08/27 06:50:48;;;;;;;0.60;0.60;;;21.80;99.90;;;;;;5007430;28;20037;-74
2022/08/27 06:53:13;;;;;;;1.97;1.70;;;21.80;99.90;;;;;;5005788;28;20174;-75
2022/08/27 06:55:46;;;;;;;0.30;0.30;;;21.90;99.90;;;;;;4994134;28;20034;-75
2022/08/27 06:58:13;;;;;;;0.50;0.50;;;21.90;99.90;;;;;;4992916;28;20090;-75
2022/08/27 07:00:40;;;;;;;0.68;0.68;;;21.90;99.70;;;;;;5009742;28;20057;-76
2022/08/27 07:03:06;;;;;;;0.70;0.68;;;21.90;99.90;;;;;;5007415;28;20045;-76
2022/08/27 07:05:36;;;;;;;0.50;0.50;;;22.00;98.70;;;;;;5010627;28;20030;-75
2022/08/27 07:08:03;;;;;;;0.40;0.40;;;22.10;98.70;;;;;;5007447;28;20427;-75
2022/08/27 07:10:31;;;;;;;;;;;22.20;98.70;;;;;;5010966;28;20065;-75
2022/08/27 07:12:57;;;;;;;0.93;0.93;;;22.20;98.70;;;;;;5010902;28;19916;-75
2022/08/27 07:15:23;;;;;;;;;;;22.30;98.80;;;;;;5010797;28;20462;-75
2022/08/27 07:17:49;;;;;;;0.73;0.73;;;22.30;99.20;;;;;;4999645;28;19956;-75
2022/08/27 07:20:16;;;;;;;0.70;0.70;;;22.30;98.70;;;;;;4989873;28;20058;-75
2022/08/27 07:22:44;;;;;;;0.52;0.50;;;22.20;98.90;;;;;;4990704;28;20035;-75
2022/08/27 07:25:13;;;;;;;0.55;0.55;;;22.40;98.70;;;;;;4991659;28;20030;-76
2022/08/27 07:27:39;;;;;;;2.72;1.30;;;22.40;98.60;;;;;;4991760;28;20038;-76
2022/08/27 07:30:09;;;;;;;1.55;1.30;;;22.50;98.60;;;;;;4990992;28;20490;-76
2022/08/27 07:32:35;;;;;;;0.30;0.30;;;22.50;98.10;;;;;;4994874;28;20042;-75
2022/08/27 07:35:00;;;;;;;1.43;0.87;;;22.50;99.50;;;;;;5010236;28;20042;-76
2022/08/27 07:37:26;;;;;;;1.93;1.50;;;22.60;99.30;;;;;;5010339;28;20034;-75
2022/08/27 07:39:52;;;;;;;0.83;0.83;;;22.60;99.70;;;;;;5008437;28;20461;-76
2022/08/27 07:45:02;;;;;;;0.40;0.40;;;22.60;99.90;;;;;;5010583;28;20082;-75
2022/08/27 07:47:27;;;;;;;9.70;1.17;;;22.60;99.90;;;;;;5006487;28;20030;-75
2022/08/27 07:49:53;;;;;;;0.50;0.50;;;22.60;99.90;;;;;;4988836;28;20023;-76
2022/08/27 07:52:18;;;;;;;1.27;1.20;;;22.60;99.90;;;;;;4988754;28;20573;-75
2022/08/27 07:54:44;;;;;;;1.30;0.97;;;22.70;99.90;;;;;;4992222;28;20026;-76
2022/08/27 07:57:10;;;;;;;1.27;0.93;;;22.70;99.90;;;;;;4991100;28;20167;-75
2022/08/27 07:59:36;;;;;;;1.20;0.82;;;22.70;99.90;;;;;;4991144;28;20030;-76
2022/08/27 08:02:03;;;;;;;1.55;1.45;;;22.80;99.90;;;;;;4990158;28;20041;-76
2022/08/27 08:04:28;;;;;;;0.60;0.60;;;22.90;99.90;;;;;;5006544;28;20373;-76
2022/08/27 08:06:54;;;;;;;0.43;0.43;;;23.00;99.90;;;;;;5008452;28;20053;-76
2022/08/27 08:09:22;;;;;;;1.48;1.38;;;23.20;99.90;;;;;;5007909;28;20462;-76
2022/08/27 08:11:50;;;;;;;0.68;0.65;;;23.30;99.90;;;;;;5008465;28;20105;-76
2022/08/27 08:14:16;;;;;;;0.22;0.22;;;23.50;99.30;;;;;;5008379;28;20496;-76
2022/08/27 08:16:42;;;;;;;0.35;0.35;;;23.60;98.60;;;;;;5009435;28;20083;-76
2022/08/27 08:19:08;;;;;;;3.13;2.47;;;23.70;98.40;;;;;;4996401;28;20031;-76
2022/08/27 08:21:34;;;;;;;1.83;1.03;;;23.80;95.60;;;;;;4989693;28;20102;-76
2022/08/27 08:24:01;;;;;;;0.28;0.28;;;23.90;95.30;;;;;;4989791;28;20026;-75
2022/08/27 08:26:27;;;;;;;0.77;0.77;;;24.00;95.20;;;;;;4991225;28;20049;-75
2022/08/27 08:28:54;;;;;;;0.40;0.40;;;24.00;95.40;;;;;;4990003;28;20027;-75
2022/08/27 08:31:22;;;;;;;1.55;1.40;;;24.10;95.30;;;;;;4988202;28;20433;-76
2022/08/27 08:33:49;;;;;;;0.55;0.55;;;24.20;95.00;;;;;;4989570;28;20381;-76
2022/08/27 08:36:16;;;;;;;1.60;1.00;;;24.30;95.00;;;;;;4989674;28;20054;-76
2022/08/27 08:38:43;;;;;;;0.30;0.30;;;24.40;95.60;;;;;;4989633;28;20030;-76
2022/08/27 08:41:27;;;;;;;0.50;0.50;;;24.40;95.90;;;;;;4994811;28;20364;-76
2022/08/27 08:43:55;;;;;;;0.98;0.90;;;24.60;96.10;;;;;;4968759;28;20034;-75
2022/08/27 08:46:29;;;;;;;0.43;0.43;;;24.60;96.40;;;;;;5001445;28;20125;-76
2022/08/27 08:49:20;;;;;;;0.90;0.85;;;24.70;96.70;;;;;;5008839;28;20499;-76
2022/08/27 08:51:45;;;;;;;0.60;0.60;;;24.70;96.50;;;;;;5009067;28;20034;-75
2022/08/27 08:54:21;;;;;;;0.43;0.43;;;24.80;95.40;;;;;;5009437;28;20030;-76
2022/08/27 08:57:06;;;;;;;0.65;0.65;;;24.90;95.80;;;;;;5006565;28;20098;-76
2022/08/27 08:59:38;;;;;;;1.17;1.08;;;25.20;94.80;;;;;;4991838;28;20575;-76
2022/08/27 09:02:07;;;;;;;3.28;1.90;;;25.60;95.30;;;;;;5004135;28;20401;-76
2022/08/27 09:04:33;;;;;;;1.50;1.33;;;26.20;94.60;;;;;;5008825;28;20492;-76
2022/08/27 09:07:10;;;;;;;0.97;0.93;;;26.70;93.60;;;;;;5008569;28;20030;-76
2022/08/27 09:09:49;;;;;;;0.47;0.47;;;27.20;92.40;;;;;;5008859;28;20275;-76
2022/08/27 09:12:21;;;;;;;0.80;0.80;;;27.70;91.60;;;;;;5007117;28;20037;-76
2022/08/27 09:15:09;;;;;;;0.50;0.50;;;28.00;90.80;;;;;;5009017;28;20380;-77
2022/08/27 09:17:35;;;;;;;0.30;0.30;;;28.20;90.30;;;;;;5008674;28;20060;-76
2022/08/27 09:20:02;;;;;;;;;;;28.40;87.00;;;;;;4997640;28;20038;-76
2022/08/27 09:22:53;;;;;;;1.45;1.10;;;28.40;84.80;;;;;;4986963;28;19920;-76
2022/08/27 09:25:38;;;;;;;0.30;0.30;;;28.40;83.80;;;;;;4990831;28;20027;-75
2022/08/27 09:29:14;;;;;;;1.67;1.30;;;28.20;82.60;;;;;;4992911;28;20037;-76
2022/08/27 09:31:19;;;;;;;1.13;0.70;;;28.30;82.30;;;;;;5008502;28;20532;-77
2022/08/27 09:33:46;;;;;;;0.32;0.32;;;28.40;82.10;;;;;;5008521;28;20040;-76
2022/08/27 09:36:18;;;;;;;3.70;1.00;;;28.30;80.60;;;;;;4989278;28;20042;-76
2022/08/27 09:39:00;;;;;;;0.75;0.75;;;28.20;81.30;;;;;;4990586;28;20030;-76
2022/08/27 09:41:30;;;;;;;1.48;1.27;;;28.30;81.80;;;;;;4995750;28;20045;-76
2022/08/27 09:44:06;;;;;;;0.98;0.93;;;28.40;79.70;;;;;;5008585;28;20350;-76
2022/08/27 09:46:32;;;;;;;0.82;0.55;;;28.60;79.80;;;;;;5008831;28;20034;-76
2022/08/27 09:49:12;;;;;;;0.50;0.50;;;28.70;78.90;;;;;;5007228;28;20026;-76
2022/08/27 09:51:41;;;;;;;0.90;0.88;;;28.80;77.80;;;;;;5006958;28;20038;-76
2022/08/27 09:54:07;;;;;;;4.43;1.88;;;28.90;77.10;;;;;;5008292;28;20042;-75
2022/08/27 09:56:35;;;;;;;2.17;1.83;;;29.00;75.50;;;;;;5006245;28;20038;-75
2022/08/27 09:59:04;;;;;;;0.77;0.73;;;29.20;74.80;;;;;;5005378;28;20038;-76
2022/08/27 10:01:35;;;;;;;1.48;1.23;;;29.30;73.90;;;;;;5006736;28;20129;-75
2022/08/27 10:04:10;;;;;;;1.27;1.17;;;29.50;74.70;;;;;;5006772;28;20026;-75
2022/08/27 10:06:37;;;;;;;0.43;0.43;;;29.70;73.60;;;;;;4988233;28;20393;-76
2022/08/27 10:09:12;;;;;;;0.65;0.65;;;29.80;74.00;;;;;;4986870;28;20031;-76
2022/08/27 10:12:02;;;;;;;8.48;0.68;;;30.10;74.40;;;;;;4990404;28;20026;-75
2022/08/27 10:14:33;;;;;;;1.40;1.30;;;30.40;73.40;;;;;;4988241;28;20452;-76
2022/08/27 10:17:10;;;;;;;0.60;0.60;;;30.60;69.20;;;;;;4988154;28;20026;-75
2022/08/27 10:19:59;;;;;;;1.85;1.17;;;30.70;68.60;;;;;;5006602;28;20037;-76
2022/08/27 10:22:50;;;;;;;7.47;2.28;;;30.70;68.20;;;;;;5007629;28;20033;-76
2022/08/27 10:25:22;;;;;;;0.98;0.90;;;30.80;67.40;;;;;;5006841;28;20475;-76
2022/08/27 10:28:06;;;;;;;0.70;0.70;;;31.00;66.50;;;;;;5004542;28;20536;-76
2022/08/27 10:30:41;;;;;;;0.75;0.75;;;30.80;64.10;;;;;;5005763;28;20034;-77
2022/08/27 10:33:34;;;;;;;1.85;1.23;;;30.70;63.90;;;;;;5007348;28;20041;-77
2022/08/27 10:36:29;;;;;;;2.25;1.23;;;30.70;63.70;;;;;;4996174;28;20125;-77
2022/08/27 10:39:14;;;;;;;2.00;0.85;;;30.90;63.80;;;;;;4990141;28;20039;-77
2022/08/27 10:41:42;;;;;;;0.40;0.40;;;31.20;62.60;;;;;;4988427;28;20081;-76
2022/08/27 10:44:35;;;;;;;6.97;2.80;;;31.30;63.00;;;;;;5007518;28;20057;-77
2022/08/27 10:47:26;;;;;;;1.83;1.67;;;30.80;63.70;;;;;;5006153;28;20442;-76
2022/08/27 10:50:16;;;;;;;1.05;0.80;;;30.00;64.50;;;;;;5006133;28;20490;-76
2022/08/27 10:52:54;;;;;;;1.55;1.00;;;29.90;65.30;;;;;;4968463;28;20038;-76
2022/08/27 10:55:28;;;;;;;4.05;0.57;;;29.60;66.40;;;;;;4967378;28;20122;-77
2022/08/27 10:58:13;;;;;;;1.15;0.93;;;29.30;67.50;;;;;;4979022;28;20110;-76
2022/08/27 11:00:45;;;;;;;0.93;0.93;;;29.10;68.10;;;;;;5000113;28;20065;-75
2022/08/27 11:03:41;;;;;;;0.52;0.52;;;29.00;68.70;;;;;;5005347;28;20030;-76
2022/08/27 11:06:23;;;;;;;1.17;0.90;;;29.10;69.70;;;;;;4999368;28;20120;-76
2022/08/27 11:09:01;;;;;;;1.15;0.93;;;29.00;67.40;;;;;;4987680;28;20477;-76
2022/08/27 11:11:43;;;;;;;1.20;1.05;;;29.20;69.00;;;;;;4987729;28;20023;-76
2022/08/27 11:14:24;;;;;;;5.50;2.33;;;29.40;67.20;;;;;;4989528;28;20035;-75
2022/08/27 11:16:55;;;;;;;25.83;1.00;;;29.80;68.10;;;;;;5006892;28;20026;-76
2022/08/27 11:19:32;;;;;;;0.43;0.25;;;30.10;66.40;;;;;;5005838;28;20034;-76
2022/08/27 11:22:14;;;;;;;0.55;0.50;;;30.10;66.10;;;;;;4995661;28;20033;-76
2022/08/27 11:24:53;;;;;;;1.23;1.13;;;30.10;66.70;;;;;;4986275;28;20042;-76
2022/08/27 11:27:23;;;;;;;1.23;1.10;;;30.20;67.00;;;;;;4987033;28;20062;-76
2022/08/27 11:29:57;;;;;;;1.08;0.98;;;30.20;67.10;;;;;;4989388;28;20030;-75
2022/08/27 11:32:31;;;;;;;0.35;0.35;;;30.00;66.50;;;;;;4996585;28;20549;-75
2022/08/27 11:35:01;;;;;;;0.90;0.85;;;29.80;65.20;;;;;;4987581;28;20042;-76
2022/08/27 11:38:14;;;;;;;1.10;0.98;;;29.80;66.10;;;;;;4986266;28;20433;-75
2022/08/27 11:40:58;;;;;;;1.02;0.85;;;29.80;66.90;;;;;;4996373;28;20112;-75
2022/08/27 11:43:27;;;;;;;1.65;1.10;;;29.80;64.50;;;;;;4993211;28;20042;-75
2022/08/27 11:46:05;;;;;;;0.25;0.25;;;29.60;64.40;;;;;;4983320;28;20393;-76
2022/08/27 11:48:36;;;;;;;3.10;1.67;;;29.50;63.90;;;;;;5010265;28;20022;-76
2022/08/27 11:51:27;;;;;;;1.20;1.02;;;29.20;64.50;;;;;;4998937;28;20034;-76
2022/08/27 11:54:02;;;;;;;0.85;0.77;;;29.20;65.10;;;;;;4989232;28;20040;-76
2022/08/27 11:56:27;;;;;;;0.60;0.60;;;29.10;65.20;;;;;;4989295;28;20076;-76
2022/08/27 11:58:53;;;;;;;2.33;1.23;;;29.10;65.80;;;;;;5004033;28;20034;-76
2022/08/27 12:01:30;;;;;;;6.93;2.47;;;29.20;66.60;;;;;;5001650;28;20076;-75
2022/08/27 12:04:19;;;;;;;1.48;1.08;;;29.30;66.70;;;;;;4988624;28;20481;-76
2022/08/27 12:06:51;;;;;;;1.20;0.85;;;29.50;66.70;;;;;;4996289;28;20037;-76
2022/08/27 12:09:22;;;;;;;2.60;2.10;;;29.60;66.40;;;;;;5010157;28;20529;-76
2022/08/27 12:11:50;;;;;;;0.73;0.73;;;29.70;66.60;;;;;;5008003;28;20030;-76
2022/08/27 12:14:38;;;;;;;1.00;0.98;;;29.90;66.60;;;;;;5008189;28;20397;-76
2022/08/27 12:17:24;;;;;;;1.67;1.23;;;30.00;67.20;;;;;;5004700;28;20068;-76
2022/08/27 12:20:28;;;;;;;1.52;0.60;;;30.00;64.00;;;;;;5008085;28;20052;-76
2022/08/27 12:23:41;;;;;;;0.30;0.30;;;29.90;62.70;;;;;;5009517;28;20584;-76
2022/08/27 12:26:30;;;;;;;3.40;1.48;;;29.70;63.80;;;;;;5003045;28;20113;-76
2022/08/27 12:29:22;;;;;;;1.35;1.08;;;29.80;62.20;;;;;;4990148;28;20062;-77
2022/08/27 12:31:52;;;;;;;1.30;1.15;;;29.80;61.70;;;;;;4988447;28;20032;-76
2022/08/27 12:34:26;;;;;;;0.45;0.45;;;29.80;61.70;;;;;;4988154;28;20050;-77
2022/08/27 12:36:54;;;;;;;0.90;0.85;;;29.70;60.50;;;;;;4989799;28;20055;-76
2022/08/27 12:39:27;;;;;;;0.20;0.20;;;29.70;60.10;;;;;;4988324;28;20057;-75
2022/08/27 12:41:53;;;;;;;0.50;0.50;;;29.80;58.80;;;;;;4993068;28;20401;-75
2022/08/27 12:44:27;;;;;;;2.13;1.92;;;29.80;58.50;;;;;;4988452;28;20034;-76
2022/08/27 12:47:00;;;;;;;2.15;1.40;;;29.70;58.90;;;;;;4989608;28;20105;-76
2022/08/27 12:49:32;;;;;;;2.65;1.25;;;29.60;59.10;;;;;;4988885;28;20030;-75
2022/08/27 12:52:11;;;;;;;0.55;0.55;;;29.70;58.20;;;;;;5007940;28;20554;-75
2022/08/27 12:55:09;;;;;;;2.15;1.05;;;29.70;57.90;;;;;;5007915;28;20400;-76
2022/08/27 12:57:55;;;;;;;1.10;1.00;;;29.80;56.90;;;;;;5025762;28;20030;-76
2022/08/27 13:00:22;;;;;;;0.47;0.45;;;29.90;57.80;;;;;;5007845;28;20041;-76
2022/08/27 13:02:57;;;;;;;0.77;0.77;;;29.90;56.90;;;;;;5007688;28;20370;-76
2022/08/27 13:05:23;;;;;;;0.73;0.73;;;30.00;56.30;;;;;;5000495;28;20121;-76
2022/08/27 13:07:51;;;;;;;0.32;0.32;;;30.00;56.40;;;;;;4989252;28;20128;-76
2022/08/27 13:10:28;;;;;;;2.30;0.95;;;30.00;56.60;;;;;;4987966;28;20038;-76
2022/08/27 13:13:08;;;;;;;1.77;1.13;;;30.00;56.10;;;;;;5001225;28;20033;-77